Springfield, OH (45505)

4:07 AM EDT on August 31, 2016 (GMT -0400)
APRSWXNET | | Change Station

Elev 1020 ft 39.91 °N, 83.77 °W | Updated 22 minutes ago

Mostly Cloudy
Mostly Cloudy
70 °F
Feels Like 70 °F
N
0
Wind Variable Wind from North
Gusts 0.0 mph

Today
High -- | Low -- °F
--% Chance of Precip.
Yesterday
High -- | Low -- °F
Precip. -- in
Pressure 30.02 in
Visibility 4.0 miles
Clouds Mostly Cloudy 10000 ft
Dew Point 68 °F
Humidity 94%
Rainfall in
Snow Depth Not available.
7:02 AM 8:07 PM
Waning Crescent, 1% visible
METAR KSGH 310756Z AUTO 00000KT 4SM BR BKN100 21/21 A3005 RMK AO2 SLP165 T02060206
Pressure 30.02 in
Visibility 4.0 miles
Clouds Mostly Cloudy 10000 ft
Dew Point 68 °F
Humidity 94%
Rainfall in
Snow Depth Not available.
7:02 AM 8:07 PM
Waning Crescent, 1% visible
METAR KSGH 310756Z AUTO 00000KT 4SM BR BKN100 21/21 A3005 RMK AO2 SLP165 T02060206

10-Day Weather Forecast

Almanac

Astronomy

Aug. 31, 2016 Rise Set
Actual Time
Civil Twilight
Nautical Twilight
Astronomical Twilight
Moon
Length of Visible Light
Length of Day
Tomorrow will be .
, % of the Moon is Illuminated

Today's Extremes

State Highs State Lows

Community

WunderPhotos

Upload Photos

1,936,038 photos uploaded!

WunderBlog® & News

Nearby

Air Quality

  Air Quality AQ Index Pollutant
Not available.

Snow Depth

Station Depth Elevation

Earthquake Activity

City Distance Mag. Time & Date
Minimum magnitude displayed is 2.5.

Coastal Water Temperatures

Place Temperature

Stations

Nearby Weather Stations

Station Location Temp. Windchill Dew Point Humidity Wind Precip. Elev Updated Type
                   

Watches & Warnings

There are currently no watches in effect.